sensor_id;sensor_type;location;lat;lon;timestamp;P1;durP1;ratioP1;P2;durP2;ratioP2
64641;SDS011;59936;51.490;5.436;2022-07-30T00:00:00;13.90;;;6.70;;
64641;SDS011;59936;51.490;5.436;2022-07-30T00:00:06;13.27;;;6.67;;
64641;SDS011;59936;51.490;5.436;2022-07-30T00:00:14;13.29;;;6.64;;
64641;SDS011;59936;51.490;5.436;2022-07-30T00:00:20;12.65;;;6.47;;
64641;SDS011;59936;51.490;5.436;2022-07-30T00:00:25;11.90;;;6.38;;
64641;SDS011;59936;51.490;5.436;2022-07-30T00:00:31;12.73;;;6.33;;
64641;SDS011;59936;51.490;5.436;2022-07-30T00:00:36;13.45;;;6.50;;
64641;SDS011;59936;51.490;5.436;2022-07-30T00:00:42;14.00;;;6.70;;
64641;SDS011;59936;51.490;5.436;2022-07-30T00:00:47;14.85;;;6.80;;
64641;SDS011;59936;51.490;5.436;2022-07-30T00:00:53;16.07;;;6.80;;
64641;SDS011;59936;51.490;5.436;2022-07-30T00:00:58;17.33;;;6.80;;
64641;SDS011;59936;51.490;5.436;2022-07-30T00:01:03;15.60;;;6.63;;
64641;SDS011;59936;51.490;5.436;2022-07-30T00:01:09;16.25;;;6.50;;
64641;SDS011;59936;51.490;5.436;2022-07-30T00:01:15;15.87;;;6.40;;
64641;SDS011;59936;51.490;5.436;2022-07-30T00:01:20;15.03;;;6.40;;
64641;SDS011;59936;51.490;5.436;2022-07-30T00:01:25;14.38;;;6.43;;
64641;SDS011;59936;51.490;5.436;2022-07-30T00:01:31;13.40;;;6.50;;
64641;SDS011;59936;51.490;5.436;2022-07-30T00:01:38;12.97;;;6.53;;
64641;SDS011;59936;51.490;5.436;2022-07-30T00:01:44;12.70;;;6.50;;
64641;SDS011;59936;51.490;5.436;2022-07-30T00:01:49;11.13;;;6.50;;
64641;SDS011;59936;51.490;5.436;2022-07-30T00:01:55;10.85;;;6.50;;
64641;SDS011;59936;51.490;5.436;2022-07-30T00:02:01;10.93;;;6.40;;
64641;SDS011;59936;51.490;5.436;2022-07-30T00:02:06;11.43;;;6.53;;
64641;SDS011;59936;51.490;5.436;2022-07-30T00:02:12;11.18;;;6.60;;
64641;SDS011;59936;51.490;5.436;2022-07-30T00:02:17;11.60;;;6.73;;
64641;SDS011;59936;51.490;5.436;2022-07-30T00:02:23;11.55;;;6.70;;
64641;SDS011;59936;51.490;5.436;2022-07-30T00:02:28;12.13;;;6.73;;
64641;SDS011;59936;51.490;5.436;2022-07-30T00:02:34;12.83;;;6.93;;
64641;SDS011;59936;51.490;5.436;2022-07-30T00:02:39;12.77;;;6.72;;
64641;SDS011;59936;51.490;5.436;2022-07-30T00:02:45;13.43;;;6.80;;
64641;SDS011;59936;51.490;5.436;2022-07-30T00:02:52;13.70;;;6.70;;
64641;SDS011;59936;51.490;5.436;2022-07-30T00:02:58;13.30;;;6.90;;
64641;SDS011;59936;51.490;5.436;2022-07-30T00:03:03;12.85;;;6.80;;
64641;SDS011;59936;51.490;5.436;2022-07-30T00:03:11;14.18;;;6.80;;
64641;SDS011;59936;51.490;5.436;2022-07-30T00:03:17;14.52;;;6.70;;
64641;SDS011;59936;51.490;5.436;2022-07-30T00:03:22;13.97;;;6.53;;
64641;SDS011;59936;51.490;5.436;2022-07-30T00:03:28;13.93;;;6.40;;
64641;SDS011;59936;51.490;5.436;2022-07-30T00:03:34;14.30;;;6.63;;
64641;SDS011;59936;51.490;5.436;2022-07-30T00:03:39;12.95;;;6.65;;
64641;SDS011;59936;51.490;5.436;2022-07-30T00:03:44;12.20;;;6.70;;
64641;SDS011;59936;51.490;5.436;2022-07-30T00:03:50;12.13;;;6.85;;
64641;SDS011;59936;51.490;5.436;2022-07-30T00:03:55;12.40;;;6.83;;
64641;SDS011;59936;51.490;5.436;2022-07-30T00:04:01;12.97;;;6.83;;
64641;SDS011;59936;51.490;5.436;2022-07-30T00:04:06;12.07;;;6.53;;
64641;SDS011;59936;51.490;5.436;2022-07-30T00:04:12;12.88;;;6.65;;
64641;SDS011;59936;51.490;5.436;2022-07-30T00:04:17;13.80;;;6.70;;
64641;SDS011;59936;51.490;5.436;2022-07-30T00:04:24;14.53;;;6.67;;
64641;SDS011;59936;51.490;5.436;2022-07-30T00:04:30;13.70;;;6.70;;
64641;SDS011;59936;51.490;5.436;2022-07-30T00:04:36;14.47;;;6.77;;
64641;SDS011;59936;51.490;5.436;2022-07-30T00:04:42;14.37;;;6.60;;
64641;SDS011;59936;51.490;5.436;2022-07-30T00:04:47;14.73;;;6.60;;
64641;SDS011;59936;51.490;5.436;2022-07-30T00:04:53;14.45;;;6.63;;
64641;SDS011;59936;51.490;5.436;2022-07-30T00:04:59;15.13;;;6.70;;
64641;SDS011;59936;51.490;5.436;2022-07-30T00:05:04;15.82;;;6.70;;
64641;SDS011;59936;51.490;5.436;2022-07-30T00:05:10;16.03;;;6.73;;
64641;SDS011;59936;51.490;5.436;2022-07-30T00:05:15;15.13;;;6.60;;
64641;SDS011;59936;51.490;5.436;2022-07-30T00:05:21;14.75;;;6.80;;
64641;SDS011;59936;51.490;5.436;2022-07-30T00:05:26;14.03;;;6.77;;
64641;SDS011;59936;51.490;5.436;2022-07-30T00:05:32;12.15;;;6.65;;
64641;SDS011;59936;51.490;5.436;2022-07-30T00:05:38;11.60;;;6.65;;
64641;SDS011;59936;51.490;5.436;2022-07-30T00:05:47;12.15;;;6.73;;
64641;SDS011;59936;51.490;5.436;2022-07-30T00:05:52;10.70;;;6.53;;
64641;SDS011;59936;51.490;5.436;2022-07-30T00:05:58;10.95;;;6.40;;
64641;SDS011;59936;51.490;5.436;2022-07-30T00:06:04;12.02;;;6.45;;
64641;SDS011;59936;51.490;5.436;2022-07-30T00:06:09;11.73;;;6.37;;
64641;SDS011;59936;51.490;5.436;2022-07-30T00:06:15;12.60;;;6.40;;
64641;SDS011;59936;51.490;5.436;2022-07-30T00:06:20;13.97;;;6.40;;
64641;SDS011;59936;51.490;5.436;2022-07-30T00:06:25;15.17;;;6.50;;
64641;SDS011;59936;51.490;5.436;2022-07-30T00:06:31;16.23;;;6.70;;
64641;SDS011;59936;51.490;5.436;2022-07-30T00:06:36;15.50;;;6.70;;
64641;SDS011;59936;51.490;5.436;2022-07-30T00:06:43;15.17;;;6.63;;
64641;SDS011;59936;51.490;5.436;2022-07-30T00:06:49;14.45;;;6.60;;
64641;SDS011;59936;51.490;5.436;2022-07-30T00:06:54;13.60;;;6.60;;
64641;SDS011;59936;51.490;5.436;2022-07-30T00:07:00;13.13;;;6.50;;
64641;SDS011;59936;51.490;5.436;2022-07-30T00:07:05;16.23;;;6.53;;
64641;SDS011;59936;51.490;5.436;2022-07-30T00:07:11;16.30;;;6.63;;
64641;SDS011;59936;51.490;5.436;2022-07-30T00:07:17;18.93;;;6.90;;
64641;SDS011;59936;51.490;5.436;2022-07-30T00:07:22;19.17;;;6.90;;
64641;SDS011;59936;51.490;5.436;2022-07-30T00:07:28;19.92;;;7.22;;
64641;SDS011;59936;51.490;5.436;2022-07-30T00:07:33;19.70;;;7.23;;
64641;SDS011;59936;51.490;5.436;2022-07-30T00:07:39;17.30;;;7.20;;
64641;SDS011;59936;51.490;5.436;2022-07-30T00:07:45;15.13;;;7.07;;
64641;SDS011;59936;51.490;5.436;2022-07-30T00:07:50;15.17;;;7.10;;
64641;SDS011;59936;51.490;5.436;2022-07-30T00:07:55;13.35;;;6.95;;
64641;SDS011;59936;51.490;5.436;2022-07-30T00:08:01;12.43;;;6.80;;
64641;SDS011;59936;51.490;5.436;2022-07-30T00:08:08;12.22;;;6.64;;
64641;SDS011;59936;51.490;5.436;2022-07-30T00:08:14;13.35;;;6.55;;
64641;SDS011;59936;51.490;5.436;2022-07-30T00:08:19;12.83;;;6.47;;
64641;SDS011;59936;51.490;5.436;2022-07-30T00:08:26;13.30;;;6.33;;
64641;SDS011;59936;51.490;5.436;2022-07-30T00:08:31;13.25;;;6.50;;
64641;SDS011;59936;51.490;5.436;2022-07-30T00:08:37;13.23;;;6.57;;
64641;SDS011;59936;51.490;5.436;2022-07-30T00:08:43;11.80;;;6.57;;
64641;SDS011;59936;51.490;5.436;2022-07-30T00:08:48;11.23;;;6.60;;
64641;SDS011;59936;51.490;5.436;2022-07-30T00:08:53;11.33;;;6.70;;
64641;SDS011;59936;51.490;5.436;2022-07-30T00:08:59;11.93;;;6.68;;
64641;SDS011;59936;51.490;5.436;2022-07-30T00:09:04;12.37;;;6.77;;
64641;SDS011;59936;51.490;5.436;2022-07-30T00:09:10;12.40;;;6.80;;
64641;SDS011;59936;51.490;5.436;2022-07-30T00:09:15;11.90;;;6.77;;
64641;SDS011;59936;51.490;5.436;2022-07-30T00:09:21;12.90;;;6.93;;
64641;SDS011;59936;51.490;5.436;2022-07-30T00:09:26;13.20;;;7.03;;
64641;SDS011;59936;51.490;5.436;2022-07-30T00:09:31;13.00;;;7.00;;
64641;SDS011;59936;51.490;5.436;2022-07-30T00:09:37;13.07;;;6.97;;
64641;SDS011;59936;51.490;5.436;2022-07-30T00:09:42;13.75;;;6.95;;
64641;SDS011;59936;51.490;5.436;2022-07-30T00:09:48;12.70;;;6.87;;
64641;SDS011;59936;51.490;5.436;2022-07-30T00:09:53;13.38;;;6.80;;
64641;SDS011;59936;51.490;5.436;2022-07-30T00:09:59;13.03;;;6.87;;
64641;SDS011;59936;51.490;5.436;2022-07-30T00:10:04;12.70;;;6.87;;
64641;SDS011;59936;51.490;5.436;2022-07-30T00:10:10;12.02;;;6.94;;
64641;SDS011;59936;51.490;5.436;2022-07-30T00:10:16;12.50;;;7.07;;
64641;SDS011;59936;51.490;5.436;2022-07-30T00:10:21;12.00;;;7.07;;
64641;SDS011;59936;51.490;5.436;2022-07-30T00:10:27;11.27;;;7.00;;
64641;SDS011;59936;51.490;5.436;2022-07-30T00:10:32;11.85;;;6.90;;
64641;SDS011;59936;51.490;5.436;2022-07-30T00:10:38;11.27;;;6.83;;
64641;SDS011;59936;51.490;5.436;2022-07-30T00:10:44;11.37;;;6.80;;
64641;SDS011;59936;51.490;5.436;2022-07-30T00:10:50;13.88;;;6.90;;
64641;SDS011;59936;51.490;5.436;2022-07-30T00:10:55;14.20;;;6.85;;
64641;SDS011;59936;51.490;5.436;2022-07-30T00:11:01;13.63;;;6.87;;
64641;SDS011;59936;51.490;5.436;2022-07-30T00:11:06;15.07;;;6.90;;
64641;SDS011;59936;51.490;5.436;2022-07-30T00:11:13;15.13;;;6.90;;
64641;SDS011;59936;51.490;5.436;2022-07-30T00:11:19;13.60;;;6.95;;
64641;SDS011;59936;51.490;5.436;2022-07-30T00:11:25;13.54;;;6.98;;
64641;SDS011;59936;51.490;5.436;2022-07-30T00:11:31;14.77;;;7.07;;
64641;SDS011;59936;51.490;5.436;2022-07-30T00:11:37;15.50;;;7.22;;
64641;SDS011;59936;51.490;5.436;2022-07-30T00:11:42;16.70;;;7.27;;
64641;SDS011;59936;51.490;5.436;2022-07-30T00:11:47;16.02;;;7.10;;
64641;SDS011;59936;51.490;5.436;2022-07-30T00:11:53;16.87;;;7.33;;
64641;SDS011;59936;51.490;5.436;2022-07-30T00:11:58;16.25;;;7.38;;
64641;SDS011;59936;51.490;5.436;2022-07-30T00:12:05;15.93;;;7.22;;
64641;SDS011;59936;51.490;5.436;2022-07-30T00:12:12;14.92;;;7.20;;
64641;SDS011;59936;51.490;5.436;2022-07-30T00:12:17;15.52;;;7.25;;
64641;SDS011;59936;51.490;5.436;2022-07-30T00:12:23;14.30;;;7.03;;
64641;SDS011;59936;51.490;5.436;2022-07-30T00:12:28;13.63;;;6.90;;
64641;SDS011;59936;51.490;5.436;2022-07-30T00:12:34;13.27;;;6.80;;
64641;SDS011;59936;51.490;5.436;2022-07-30T00:12:39;11.95;;;6.75;;
64641;SDS011;59936;51.490;5.436;2022-07-30T00:12:45;12.70;;;6.73;;
64641;SDS011;59936;51.490;5.436;2022-07-30T00:12:50;12.80;;;6.85;;
64641;SDS011;59936;51.490;5.436;2022-07-30T00:12:56;12.93;;;6.87;;
64641;SDS011;59936;51.490;5.436;2022-07-30T00:13:03;14.20;;;6.84;;
64641;SDS011;59936;51.490;5.436;2022-07-30T00:13:10;14.13;;;6.77;;
64641;SDS011;59936;51.490;5.436;2022-07-30T00:13:16;12.55;;;6.55;;
64641;SDS011;59936;51.490;5.436;2022-07-30T00:13:22;13.87;;;6.40;;
64641;SDS011;59936;51.490;5.436;2022-07-30T00:13:28;12.97;;;6.43;;
64641;SDS011;59936;51.490;5.436;2022-07-30T00:13:33;12.05;;;6.68;;
64641;SDS011;59936;51.490;5.436;2022-07-30T00:13:39;14.18;;;7.00;;
64641;SDS011;59936;51.490;5.436;2022-07-30T00:13:44;15.13;;;7.30;;
64641;SDS011;59936;51.490;5.436;2022-07-30T00:13:50;15.80;;;7.40;;
64641;SDS011;59936;51.490;5.436;2022-07-30T00:13:55;15.77;;;7.50;;
64641;SDS011;59936;51.490;5.436;2022-07-30T00:14:01;18.20;;;7.67;;
64641;SDS011;59936;51.490;5.436;2022-07-30T00:14:07;18.05;;;7.57;;
64641;SDS011;59936;51.490;5.436;2022-07-30T00:14:12;17.27;;;7.43;;
64641;SDS011;59936;51.490;5.436;2022-07-30T00:14:18;16.33;;;7.37;;
64641;SDS011;59936;51.490;5.436;2022-07-30T00:14:26;16.03;;;7.13;;
64641;SDS011;59936;51.490;5.436;2022-07-30T00:14:31;14.40;;;6.95;;
64641;SDS011;59936;51.490;5.436;2022-07-30T00:14:38;14.03;;;6.90;;
64641;SDS011;59936;51.490;5.436;2022-07-30T00:14:44;13.80;;;6.82;;
64641;SDS011;59936;51.490;5.436;2022-07-30T00:14:49;13.83;;;6.73;;
64641;SDS011;59936;51.490;5.436;2022-07-30T00:14:55;13.73;;;6.70;;
64641;SDS011;59936;51.490;5.436;2022-07-30T00:15:00;12.85;;;6.80;;
64641;SDS011;59936;51.490;5.436;2022-07-30T00:15:06;13.17;;;6.80;;
64641;SDS011;59936;51.490;5.436;2022-07-30T00:15:12;13.40;;;6.93;;
64641;SDS011;59936;51.490;5.436;2022-07-30T00:15:18;14.40;;;7.03;;
64641;SDS011;59936;51.490;5.436;2022-07-30T00:15:24;15.10;;;7.30;;
64641;SDS011;59936;51.490;5.436;2022-07-30T00:15:29;14.82;;;7.30;;
64641;SDS011;59936;51.490;5.436;2022-07-30T00:15:35;13.93;;;7.30;;
64641;SDS011;59936;51.490;5.436;2022-07-30T00:15:40;13.35;;;7.22;;
64641;SDS011;59936;51.490;5.436;2022-07-30T00:15:46;13.57;;;7.33;;
64641;SDS011;59936;51.490;5.436;2022-07-30T00:15:51;12.35;;;7.25;;
64641;SDS011;59936;51.490;5.436;2022-07-30T00:15:57;12.40;;;7.13;;
64641;SDS011;59936;51.490;5.436;2022-07-30T00:16:02;13.23;;;7.05;;
64641;SDS011;59936;51.490;5.436;2022-07-30T00:16:08;13.90;;;7.30;;
64641;SDS011;59936;51.490;5.436;2022-07-30T00:16:13;14.13;;;7.30;;
64641;SDS011;59936;51.490;5.436;2022-07-30T00:16:19;14.02;;;7.25;;
64641;SDS011;59936;51.490;5.436;2022-07-30T00:16:24;13.77;;;7.30;;
64641;SDS011;59936;51.490;5.436;2022-07-30T00:16:30;14.00;;;7.38;;
64641;SDS011;59936;51.490;5.436;2022-07-30T00:16:36;13.93;;;7.23;;
64641;SDS011;59936;51.490;5.436;2022-07-30T00:16:41;14.13;;;7.20;;
64641;SDS011;59936;51.490;5.436;2022-07-30T00:16:46;14.77;;;7.30;;
64641;SDS011;59936;51.490;5.436;2022-07-30T00:16:52;16.53;;;7.40;;
64641;SDS011;59936;51.490;5.436;2022-07-30T00:16:57;17.17;;;7.43;;
64641;SDS011;59936;51.490;5.436;2022-07-30T00:17:03;17.35;;;7.50;;
64641;SDS011;59936;51.490;5.436;2022-07-30T00:17:09;17.27;;;7.55;;
64641;SDS011;59936;51.490;5.436;2022-07-30T00:17:14;16.97;;;7.40;;
64641;SDS011;59936;51.490;5.436;2022-07-30T00:17:20;15.67;;;7.50;;
64641;SDS011;59936;51.490;5.436;2022-07-30T00:17:25;14.07;;;7.38;;
64641;SDS011;59936;51.490;5.436;2022-07-30T00:17:30;12.97;;;7.30;;
64641;SDS011;59936;51.490;5.436;2022-07-30T00:17:36;13.23;;;7.30;;
64641;SDS011;59936;51.490;5.436;2022-07-30T00:17:41;13.20;;;7.30;;
64641;SDS011;59936;51.490;5.436;2022-07-30T00:17:49;13.63;;;7.22;;
64641;SDS011;59936;51.490;5.436;2022-07-30T00:17:55;14.52;;;7.20;;
64641;SDS011;59936;51.490;5.436;2022-07-30T00:18:00;14.50;;;7.03;;
64641;SDS011;59936;51.490;5.436;2022-07-30T00:18:06;13.65;;;6.97;;
64641;SDS011;59936;51.490;5.436;2022-07-30T00:18:12;14.00;;;7.00;;
64641;SDS011;59936;51.490;5.436;2022-07-30T00:18:17;13.50;;;7.00;;
64641;SDS011;59936;51.490;5.436;2022-07-30T00:18:23;14.17;;;7.00;;
64641;SDS011;59936;51.490;5.436;2022-07-30T00:18:28;13.52;;;7.00;;
64641;SDS011;59936;51.490;5.436;2022-07-30T00:18:33;14.57;;;7.07;;
64641;SDS011;59936;51.490;5.436;2022-07-30T00:18:39;14.55;;;7.03;;
64641;SDS011;59936;51.490;5.436;2022-07-30T00:18:44;13.50;;;7.00;;
64641;SDS011;59936;51.490;5.436;2022-07-30T00:18:50;12.68;;;7.00;;
64641;SDS011;59936;51.490;5.436;2022-07-30T00:18:55;13.00;;;6.90;;
64641;SDS011;59936;51.490;5.436;2022-07-30T00:19:01;13.02;;;6.80;;
64641;SDS011;59936;51.490;5.436;2022-07-30T00:19:07;11.70;;;6.80;;
64641;SDS011;59936;51.490;5.436;2022-07-30T00:19:13;12.10;;;6.90;;
64641;SDS011;59936;51.490;5.436;2022-07-30T00:19:19;11.90;;;7.15;;
64641;SDS011;59936;51.490;5.436;2022-07-30T00:19:24;12.83;;;7.37;;
64641;SDS011;59936;51.490;5.436;2022-07-30T00:19:30;12.88;;;7.53;;
64641;SDS011;59936;51.490;5.436;2022-07-30T00:19:36;14.17;;;7.60;;
64641;SDS011;59936;51.490;5.436;2022-07-30T00:19:41;14.55;;;7.68;;
64641;SDS011;59936;51.490;5.436;2022-07-30T00:19:46;14.53;;;7.53;;
64641;SDS011;59936;51.490;5.436;2022-07-30T00:19:52;14.98;;;7.47;;
64641;SDS011;59936;51.490;5.436;2022-07-30T00:19:57;14.17;;;7.40;;
64641;SDS011;59936;51.490;5.436;2022-07-30T00:20:03;13.63;;;7.40;;
64641;SDS011;59936;51.490;5.436;2022-07-30T00:20:09;13.82;;;7.53;;
64641;SDS011;59936;51.490;5.436;2022-07-30T00:20:15;14.75;;;7.80;;
64641;SDS011;59936;51.490;5.436;2022-07-30T00:20:21;14.63;;;7.88;;
64641;SDS011;59936;51.490;5.436;2022-07-30T00:20:27;14.65;;;7.88;;
64641;SDS011;59936;51.490;5.436;2022-07-30T00:20:33;15.55;;;7.75;;
64641;SDS011;59936;51.490;5.436;2022-07-30T00:20:39;16.23;;;7.68;;
64641;SDS011;59936;51.490;5.436;2022-07-30T00:20:44;15.57;;;7.50;;
64641;SDS011;59936;51.490;5.436;2022-07-30T00:20:50;15.05;;;7.45;;
64641;SDS011;59936;51.490;5.436;2022-07-30T00:20:55;15.53;;;7.60;;
64641;SDS011;59936;51.490;5.436;2022-07-30T00:21:00;15.85;;;7.85;;
64641;SDS011;59936;51.490;5.436;2022-07-30T00:21:06;14.60;;;8.10;;
64641;SDS011;59936;51.490;5.436;2022-07-30T00:21:11;15.27;;;8.13;;
64641;SDS011;59936;51.490;5.436;2022-07-30T00:21:17;16.00;;;8.07;;
64641;SDS011;59936;51.490;5.436;2022-07-30T00:21:23;15.57;;;8.00;;
64641;SDS011;59936;51.490;5.436;2022-07-30T00:21:28;14.73;;;7.90;;
64641;SDS011;59936;51.490;5.436;2022-07-30T00:21:34;14.40;;;7.60;;
64641;SDS011;59936;51.490;5.436;2022-07-30T00:21:39;15.07;;;7.70;;
64641;SDS011;59936;51.490;5.436;2022-07-30T00:21:45;13.23;;;7.55;;
64641;SDS011;59936;51.490;5.436;2022-07-30T00:21:50;13.30;;;7.50;;
64641;SDS011;59936;51.490;5.436;2022-07-30T00:21:56;14.40;;;7.72;;
64641;SDS011;59936;51.490;5.436;2022-07-30T00:22:02;13.98;;;7.85;;
64641;SDS011;59936;51.490;5.436;2022-07-30T00:22:07;12.87;;;7.67;;
64641;SDS011;59936;51.490;5.436;2022-07-30T00:22:13;13.10;;;7.65;;
64641;SDS011;59936;51.490;5.436;2022-07-30T00:22:18;13.37;;;7.77;;
64641;SDS011;59936;51.490;5.436;2022-07-30T00:22:24;12.73;;;7.50;;
64641;SDS011;59936;51.490;5.436;2022-07-30T00:22:29;13.50;;;7.33;;
64641;SDS011;59936;51.490;5.436;2022-07-30T00:22:35;14.18;;;7.30;;
64641;SDS011;59936;51.490;5.436;2022-07-30T00:22:41;14.73;;;7.53;;
64641;SDS011;59936;51.490;5.436;2022-07-30T00:22:46;15.23;;;7.70;;
64641;SDS011;59936;51.490;5.436;2022-07-30T00:22:52;14.98;;;7.78;;
64641;SDS011;59936;51.490;5.436;2022-07-30T00:22:57;14.97;;;8.10;;
64641;SDS011;59936;51.490;5.436;2022-07-30T00:23:03;14.63;;;8.15;;
64641;SDS011;59936;51.490;5.436;2022-07-30T00:23:09;13.53;;;7.87;;
64641;SDS011;59936;51.490;5.436;2022-07-30T00:23:14;13.43;;;7.73;;
64641;SDS011;59936;51.490;5.436;2022-07-30T00:23:20;14.40;;;7.72;;
64641;SDS011;59936;51.490;5.436;2022-07-30T00:23:25;14.37;;;7.67;;
64641;SDS011;59936;51.490;5.436;2022-07-30T00:23:30;13.90;;;7.83;;
64641;SDS011;59936;51.490;5.436;2022-07-30T00:23:36;13.05;;;7.93;;
64641;SDS011;59936;51.490;5.436;2022-07-30T00:23:41;13.43;;;7.93;;
64641;SDS011;59936;51.490;5.436;2022-07-30T00:23:47;13.57;;;8.00;;
64641;SDS011;59936;51.490;5.436;2022-07-30T00:23:52;12.73;;;8.07;;
64641;SDS011;59936;51.490;5.436;2022-07-30T00:23:58;12.88;;;8.00;;
64641;SDS011;59936;51.490;5.436;2022-07-30T00:24:03;13.48;;;8.02;;
64641;SDS011;59936;51.490;5.436;2022-07-30T00:24:10;12.77;;;8.00;;
64641;SDS011;59936;51.490;5.436;2022-07-30T00:24:15;12.57;;;8.13;;
64641;SDS011;59936;51.490;5.436;2022-07-30T00:24:21;12.23;;;8.10;;
64641;SDS011;59936;51.490;5.436;2022-07-30T00:24:27;12.50;;;8.00;;
64641;SDS011;59936;51.490;5.436;2022-07-30T00:24:32;14.20;;;8.15;;
64641;SDS011;59936;51.490;5.436;2022-07-30T00:24:38;16.13;;;8.37;;
64641;SDS011;59936;51.490;5.436;2022-07-30T00:24:44;16.13;;;8.27;;
64641;SDS011;59936;51.490;5.436;2022-07-30T00:24:49;15.87;;;8.20;;
64641;SDS011;59936;51.490;5.436;2022-07-30T00:24:55;15.80;;;8.18;;
64641;SDS011;59936;51.490;5.436;2022-07-30T00:25:00;16.73;;;8.23;;
64641;SDS011;59936;51.490;5.436;2022-07-30T00:25:05;14.35;;;8.07;;
64641;SDS011;59936;51.490;5.436;2022-07-30T00:25:11;15.05;;;8.13;;
64641;SDS011;59936;51.490;5.436;2022-07-30T00:25:17;16.10;;;8.20;;
64641;SDS011;59936;51.490;5.436;2022-07-30T00:25:23;18.02;;;8.18;;
64641;SDS011;59936;51.490;5.436;2022-07-30T00:25:28;17.70;;;8.02;;
64641;SDS011;59936;51.490;5.436;2022-07-30T00:25:34;17.47;;;7.97;;
64641;SDS011;59936;51.490;5.436;2022-07-30T00:25:39;16.38;;;7.90;;
64641;SDS011;59936;51.490;5.436;2022-07-30T00:25:45;15.47;;;7.70;;
64641;SDS011;59936;51.490;5.436;2022-07-30T00:25:50;13.18;;;7.70;;
64641;SDS011;59936;51.490;5.436;2022-07-30T00:25:56;13.07;;;7.60;;
64641;SDS011;59936;51.490;5.436;2022-07-30T00:26:01;12.80;;;7.70;;
64641;SDS011;59936;51.490;5.436;2022-07-30T00:26:06;13.07;;;7.72;;
64641;SDS011;59936;51.490;5.436;2022-07-30T00:26:12;13.53;;;8.00;;
64641;SDS011;59936;51.490;5.436;2022-07-30T00:26:17;13.88;;;8.02;;
64641;SDS011;59936;51.490;5.436;2022-07-30T00:26:23;14.30;;;8.07;;
64641;SDS011;59936;51.490;5.436;2022-07-30T00:26:28;14.10;;;8.10;;
64641;SDS011;59936;51.490;5.436;2022-07-30T00:26:34;16.00;;;8.25;;
64641;SDS011;59936;51.490;5.436;2022-07-30T00:26:39;16.98;;;8.15;;
64641;SDS011;59936;51.490;5.436;2022-07-30T00:26:45;16.93;;;7.90;;
64641;SDS011;59936;51.490;5.436;2022-07-30T00:26:50;16.67;;;7.90;;
64641;SDS011;59936;51.490;5.436;2022-07-30T00:26:56;16.08;;;7.93;;
64641;SDS011;59936;51.490;5.436;2022-07-30T00:27:01;15.18;;;7.85;;
64641;SDS011;59936;51.490;5.436;2022-07-30T00:27:07;14.70;;;7.83;;
64641;SDS011;59936;51.490;5.436;2022-07-30T00:27:12;14.87;;;7.83;;
64641;SDS011;59936;51.490;5.436;2022-07-30T00:27:18;14.93;;;7.93;;
64641;SDS011;59936;51.490;5.436;2022-07-30T00:27:23;15.27;;;8.02;;
64641;SDS011;59936;51.490;5.436;2022-07-30T00:27:29;15.93;;;7.83;;
64641;SDS011;59936;51.490;5.436;2022-07-30T00:27:38;16.37;;;8.17;;
64641;SDS011;59936;51.490;5.436;2022-07-30T00:27:48;15.97;;;8.04;;
64641;SDS011;59936;51.490;5.436;2022-07-30T00:27:53;16.17;;;8.07;;
64641;SDS011;59936;51.490;5.436;2022-07-30T00:27:59;15.87;;;8.00;;
64641;SDS011;59936;51.490;5.436;2022-07-30T00:28:04;16.10;;;7.88;;
64641;SDS011;59936;51.490;5.436;2022-07-30T00:28:10;15.20;;;7.70;;
64641;SDS011;59936;51.490;5.436;2022-07-30T00:28:15;15.20;;;7.70;;
64641;SDS011;59936;51.490;5.436;2022-07-30T00:28:20;15.47;;;7.70;;
64641;SDS011;59936;51.490;5.436;2022-07-30T00:28:27;15.00;;;7.80;;
64641;SDS011;59936;51.490;5.436;2022-07-30T00:28:32;14.16;;;7.92;;
64641;SDS011;59936;51.490;5.436;2022-07-30T00:28:38;13.67;;;7.97;;
64641;SDS011;59936;51.490;5.436;2022-07-30T00:28:43;13.35;;;7.95;;
64641;SDS011;59936;51.490;5.436;2022-07-30T00:28:49;13.80;;;8.10;;
64641;SDS011;59936;51.490;5.436;2022-07-30T00:28:54;13.32;;;7.93;;
64641;SDS011;59936;51.490;5.436;2022-07-30T00:29:00;13.00;;;7.77;;
64641;SDS011;59936;51.490;5.436;2022-07-30T00:29:05;12.73;;;7.53;;
64641;SDS011;59936;51.490;5.436;2022-07-30T00:29:11;13.00;;;7.50;;
64641;SDS011;59936;51.490;5.436;2022-07-30T00:29:17;13.32;;;7.50;;
64641;SDS011;59936;51.490;5.436;2022-07-30T00:29:22;13.68;;;7.47;;
64641;SDS011;59936;51.490;5.436;2022-07-30T00:29:27;15.03;;;7.80;;
64641;SDS011;59936;51.490;5.436;2022-07-30T00:29:34;15.98;;;8.13;;
64641;SDS011;59936;51.490;5.436;2022-07-30T00:29:39;15.68;;;8.23;;
64641;SDS011;59936;51.490;5.436;2022-07-30T00:29:44;15.73;;;8.27;;
64641;SDS011;59936;51.490;5.436;2022-07-30T00:29:50;14.83;;;8.30;;
64641;SDS011;59936;51.490;5.436;2022-07-30T00:29:55;14.30;;;8.23;;
64641;SDS011;59936;51.490;5.436;2022-07-30T00:30:01;15.40;;;8.13;;
64641;SDS011;59936;51.490;5.436;2022-07-30T00:30:11;15.02;;;8.15;;
64641;SDS011;59936;51.490;5.436;2022-07-30T00:30:18;14.60;;;8.06;;
64641;SDS011;59936;51.490;5.436;2022-07-30T00:30:23;15.60;;;8.10;;
64641;SDS011;59936;51.490;5.436;2022-07-30T00:30:29;15.40;;;8.15;;
64641;SDS011;59936;51.490;5.436;2022-07-30T00:30:34;16.13;;;8.07;;
64641;SDS011;59936;51.490;5.436;2022-07-30T00:30:40;16.40;;;8.02;;
64641;SDS011;59936;51.490;5.436;2022-07-30T00:30:45;17.13;;;8.20;;
64641;SDS011;59936;51.490;5.436;2022-07-30T00:30:51;16.53;;;8.20;;
64641;SDS011;59936;51.490;5.436;2022-07-30T00:30:56;15.27;;;8.10;;
64641;SDS011;59936;51.490;5.436;2022-07-30T00:31:02;15.13;;;8.10;;
64641;SDS011;59936;51.490;5.436;2022-07-30T00:31:07;14.52;;;8.20;;
64641;SDS011;59936;51.490;5.436;2022-07-30T00:31:13;14.98;;;8.18;;
64641;SDS011;59936;51.490;5.436;2022-07-30T00:31:18;14.47;;;8.00;;
64641;SDS011;59936;51.490;5.436;2022-07-30T00:31:24;15.00;;;7.88;;
64641;SDS011;59936;51.490;5.436;2022-07-30T00:31:29;13.93;;;7.70;;
64641;SDS011;59936;51.490;5.436;2022-07-30T00:31:35;13.93;;;7.53;;
64641;SDS011;59936;51.490;5.436;2022-07-30T00:31:41;13.93;;;7.65;;
64641;SDS011;59936;51.490;5.436;2022-07-30T00:31:46;14.23;;;7.70;;
64641;SDS011;59936;51.490;5.436;2022-07-30T00:31:52;14.53;;;7.90;;
64641;SDS011;59936;51.490;5.436;2022-07-30T00:31:57;15.85;;;7.90;;
64641;SDS011;59936;51.490;5.436;2022-07-30T00:32:02;16.17;;;8.13;;
64641;SDS011;59936;51.490;5.436;2022-07-30T00:32:08;16.67;;;8.43;;
64641;SDS011;59936;51.490;5.436;2022-07-30T00:32:14;15.93;;;8.27;;
64641;SDS011;59936;51.490;5.436;2022-07-30T00:32:19;16.23;;;8.43;;
64641;SDS011;59936;51.490;5.436;2022-07-30T00:32:25;16.20;;;8.53;;
64641;SDS011;59936;51.490;5.436;2022-07-30T00:32:30;14.23;;;8.48;;
64641;SDS011;59936;51.490;5.436;2022-07-30T00:32:36;13.75;;;8.20;;
64641;SDS011;59936;51.490;5.436;2022-07-30T00:32:41;14.00;;;8.27;;
64641;SDS011;59936;51.490;5.436;2022-07-30T00:32:47;14.10;;;8.48;;
64641;SDS011;59936;51.490;5.436;2022-07-30T00:32:52;14.23;;;8.50;;
64641;SDS011;59936;51.490;5.436;2022-07-30T00:32:58;14.60;;;8.60;;
64641;SDS011;59936;51.490;5.436;2022-07-30T00:33:03;14.45;;;8.65;;
64641;SDS011;59936;51.490;5.436;2022-07-30T00:33:09;14.80;;;8.77;;
64641;SDS011;59936;51.490;5.436;2022-07-30T00:33:14;16.95;;;8.77;;
64641;SDS011;59936;51.490;5.436;2022-07-30T00:33:19;15.43;;;8.43;;
64641;SDS011;59936;51.490;5.436;2022-07-30T00:33:25;14.93;;;8.40;;
64641;SDS011;59936;51.490;5.436;2022-07-30T00:33:31;15.55;;;8.32;;
64641;SDS011;59936;51.490;5.436;2022-07-30T00:33:36;16.03;;;8.47;;